Record high temperature 52.3°C Record low temperature -14.8°C Record high gust 66.0 kts Record high average 44.0 kts Record daily rain 221.2 mm Record low windchill -23.5°C Record high barometer 1099.9 hPa Record low barometer 815.2 hPa
Daily high pressure 1020.7 hPa Daily low pressure 1015.8 hPa Daily low windchill 12.9°C Daily high heat index 18.5°C Daily high gust speed 12.0 kts SSE Daily high average speed 11.8 kts SSE
Potts Point Sydney
LAST READING AT TIME: 04:10 DATE: 21 September 2017, time of next update: 04:20
Current WeatherClear/Clear Current Temperature 12.9°C (55.2°F), Apparent temp 13.1°C
Maximum Temperature (since 9am)18.5°C at: 09:11 Minimum Temperature (since 9am)12.9°C at: 03:59
Average windspeed (ten minute)0.0 kts (0.0 kmh) Wind Direction (ten minute)WNW (292°)
Windchill Temperature 12.9°C Maximum Gust (last hour)3.5 kts (6.5 kmh) at: 03:17
Maximum Gust (since 9am)12.0 kts (22.3 kmh) at: 15:10 Maximum 1 minute average (since 9am)11.8 kts (21.7 kmh) at: 15:12
Rainfall (last hour)0.0 mm Rainfall (since 9am)0.0 mm (0.00 in.)---
Rainfall This month 1.0 mm (0.04 in.) Rainfall To date this year 647.0 mm (25.47 in.)
Maximum rain per minute (last hour)0.0 mm/min Maximum rain per hour (last 6 hours)0.0 mm/hour
Yesterdays rainfall 0.0 mm DewPoint 9.7°C (Wet Bulb :11.3°C )
Humidity 81 %, Humidex 14.1°C Barometer corrected to msl1016.4 hPa
Pressure change +0.4 hPa (last hour) Trend (last hour)STEADY
Pressure change (last 12 hours)-0.1 hPa Pressure change (last 6 hours)-1.8 hPa
Current Indoor Temp. 22.9°C
Current Indoor Hum. 47%
Current solar 0 W/mē Current UV0.0
Maximum solar (since 9am) 836 W/mē Minimum solar (since 9am)1000 W/mē
Current 00:00 hours of sunshine today, current sky: Clear/Clear
Sunshine hours for the year: 881:09 hrs Sunshine hours for the month: 100:57 hrs
Current evapotranspiration rate 0.2 mm per day. Yesterday's reading 3.5

This page is updated from recent data collected by a WS2310 weather station Use the Reload or Refresh facility on your browser to retrieve the latest data.


Animated web cam image


Weather report/warning/Metars

Sydney Airport, Australia (YSSY) 33-57S 151-11E 3M
Sep 20, 2017 - 01:30 PM EDT / 2017.09.20 1730 UTC
Wind: from the NW (310 degrees) at 7 MPH (6 KT):0
Visibility: greater than 7 mile(s):0
Temperature: 53 F (12 C)
Dew Point: 48 F (9 C)
Relative Humidity: 81%
Pressure (altimeter): 30.00 in. Hg (1016 hPa)
ob: YSSY 201730Z 31006KT CAVOK 12/09 Q1016 NOSIG
cycle: 17
Auckland Airport, New Zealand (NZAA) 37-01S 174-48E 6M
Sep 20, 2017 - 01:30 PM EDT / 2017.09.20 1730 UTC
Wind: from the NNE (030 degrees) at 7 MPH (6 KT):0
Sky conditions: mostly cloudy
Temperature: 53 F (12 C)
Dew Point: 51 F (11 C)
Relative Humidity: 93%
Pressure (altimeter): 29.80 in. Hg (1009 hPa)
ob: NZAA 201730Z AUTO 03006KT //// FEW018/// BKN031/// BKN038/// 12/11 Q1009 NOSIG
cycle: 17